FIN466 EFHK-EIDW
Flight info
| Callsign | FIN466 |
|---|---|
| Flight time | 1h 26m |
| Altitude | 36000 |
| Route | ADIVO Y365 POGOK DCT BEDLA P609 KSD DCT PIGAV DCT KLONN DCT ADN DCT ASNUD DCT PTH DCT TRN DCT BLACA DCT NELBO DCT NIMAT NIMAT3R |
| Aircraft | A321/M-SDE3FGHIRWY/LB1 |
Departure
| Time | 2026-02-17 14:14 |
|---|---|
| Airport | Helsinki Vantaa Airport (EFHK) |
Arrival
| Time | 2026-02-17 15:40 |
|---|---|
| Airport | Dublin Airport (EIDW) |
| Time | Latitude | Longitude | Altitude | Speed | Heading |
|---|---|---|---|---|---|
| 2026-02-17 13:54 | 60.31972 | 24.96742 | 164 ft | 0 kts | 176° |
| 2026-02-17 14:07 | 60.31977 | 24.96741 | 163 ft | 3 kts | 176° |
| 2026-02-17 14:07 | 60.31995 | 24.96739 | 163 ft | 3 kts | 176° |
| 2026-02-17 14:08 | 60.32014 | 24.96739 | 163 ft | 3 kts | 183° |
| 2026-02-17 14:08 | 60.32033 | 24.96745 | 163 ft | 3 kts | 208° |
| 2026-02-17 14:08 | 60.32041 | 24.96754 | 163 ft | 0 kts | 217° |
| 2026-02-17 14:08 | 60.32041 | 24.96753 | 163 ft | 0 kts | 217° |
| 2026-02-17 14:09 | 60.32039 | 24.96751 | 163 ft | 1 kts | 217° |
| 2026-02-17 14:09 | 60.32028 | 24.96734 | 163 ft | 3 kts | 219° |
| 2026-02-17 14:09 | 60.31989 | 24.96654 | 163 ft | 15 kts | 227° |
| 2026-02-17 14:10 | 60.31905 | 24.96456 | 163 ft | 19 kts | 235° |
| 2026-02-17 14:10 | 60.31862 | 24.96235 | 164 ft | 17 kts | 278° |
| 2026-02-17 14:10 | 60.31925 | 24.96048 | 168 ft | 18 kts | 320° |
| 2026-02-17 14:11 | 60.32183 | 24.95553 | 173 ft | 33 kts | 320° |
| 2026-02-17 14:11 | 60.32355 | 24.95268 | 177 ft | 30 kts | 338° |
| 2026-02-17 14:11 | 60.32527 | 24.95147 | 180 ft | 22 kts | 340° |
| 2026-02-17 14:11 | 60.32672 | 24.95046 | 180 ft | 23 kts | 342° |
| 2026-02-17 14:12 | 60.32834 | 24.94945 | 175 ft | 26 kts | 342° |
| 2026-02-17 14:12 | 60.32978 | 24.94753 | 178 ft | 25 kts | 316° |
| 2026-02-17 14:12 | 60.33050 | 24.94617 | 183 ft | 5 kts | 316° |
| 2026-02-17 14:12 | 60.33066 | 24.94585 | 184 ft | 5 kts | 316° |
| 2026-02-17 14:13 | 60.33105 | 24.94446 | 185 ft | 17 kts | 279° |
| 2026-02-17 14:13 | 60.32967 | 24.94073 | 193 ft | 66 kts | 227° |
| 2026-02-17 14:13 | 60.32495 | 24.93045 | 176 ft | 131 kts | 227° |
| 2026-02-17 14:13 | 60.31776 | 24.91471 | 407 ft | 162 kts | 225° |
| 2026-02-17 14:14 | 60.31009 | 24.89804 | 1217 ft | 161 kts | 227° |
| 2026-02-17 14:14 | 60.30375 | 24.87984 | 2035 ft | 161 kts | 244° |
| 2026-02-17 14:14 | 60.30159 | 24.85581 | 2359 ft | 192 kts | 271° |
| 2026-02-17 14:15 | 60.31272 | 24.79684 | 2941 ft | 261 kts | 291° |
| 2026-02-17 14:15 | 60.31766 | 24.76025 | 3516 ft | 280 kts | 269° |
| 2026-02-17 14:15 | 60.31713 | 24.72001 | 4345 ft | 295 kts | 265° |
| 2026-02-17 14:15 | 60.31615 | 24.67846 | 5252 ft | 303 kts | 264° |
| 2026-02-17 14:16 | 60.31505 | 24.63534 | 6361 ft | 304 kts | 263° |
| 2026-02-17 14:16 | 60.31397 | 24.59246 | 7315 ft | 308 kts | 263° |
| 2026-02-17 14:16 | 60.31288 | 24.54905 | 8253 ft | 312 kts | 263° |
| 2026-02-17 14:16 | 60.31180 | 24.50572 | 9213 ft | 315 kts | 263° |
| 2026-02-17 14:17 | 60.31069 | 24.46147 | 10190 ft | 317 kts | 262° |
| 2026-02-17 14:17 | 60.30956 | 24.41696 | 11096 ft | 319 kts | 262° |
| 2026-02-17 14:17 | 60.30841 | 24.37213 | 12015 ft | 321 kts | 262° |
| 2026-02-17 14:17 | 60.30720 | 24.32693 | 12828 ft | 325 kts | 262° |
| 2026-02-17 14:18 | 60.30597 | 24.28102 | 13687 ft | 329 kts | 262° |
| 2026-02-17 14:18 | 60.30469 | 24.23474 | 14479 ft | 332 kts | 262° |
| 2026-02-17 14:18 | 60.30340 | 24.18794 | 15268 ft | 334 kts | 263° |
| 2026-02-17 14:19 | 60.30076 | 24.09390 | 16896 ft | 337 kts | 264° |
| 2026-02-17 14:19 | 60.29940 | 24.04679 | 17743 ft | 337 kts | 264° |
| 2026-02-17 14:19 | 60.29798 | 23.99951 | 18589 ft | 336 kts | 263° |
| 2026-02-17 14:19 | 60.29459 | 23.95315 | 19335 ft | 333 kts | 256° |
| 2026-02-17 14:20 | 60.28966 | 23.90784 | 20104 ft | 330 kts | 256° |
| 2026-02-17 14:20 | 60.28477 | 23.86295 | 20891 ft | 325 kts | 256° |
| 2026-02-17 14:20 | 60.27997 | 23.81890 | 21699 ft | 319 kts | 257° |
| 2026-02-17 14:20 | 60.27534 | 23.77640 | 22517 ft | 310 kts | 257° |
| 2026-02-17 14:21 | 60.27080 | 23.73462 | 23383 ft | 300 kts | 258° |
| 2026-02-17 14:21 | 60.26634 | 23.69368 | 23755 ft | 306 kts | 258° |
| 2026-02-17 14:21 | 60.26164 | 23.65075 | 23776 ft | 321 kts | 258° |
| 2026-02-17 14:21 | 60.25673 | 23.60618 | 23898 ft | 332 kts | 258° |
| 2026-02-17 14:22 | 60.25163 | 23.56005 | 24027 ft | 343 kts | 258° |
| 2026-02-17 14:22 | 60.24093 | 23.46340 | 24281 ft | 365 kts | 258° |
| 2026-02-17 14:23 | 60.22794 | 23.34757 | 24569 ft | 389 kts | 258° |
| 2026-02-17 14:23 | 60.21566 | 23.23878 | 24845 ft | 408 kts | 258° |
| 2026-02-17 14:23 | 60.20279 | 23.12601 | 25369 ft | 417 kts | 258° |
| 2026-02-17 14:23 | 60.18970 | 23.01189 | 26122 ft | 420 kts | 258° |
| 2026-02-17 14:24 | 60.17641 | 22.89701 | 26909 ft | 423 kts | 258° |
| 2026-02-17 14:24 | 60.16294 | 22.78171 | 27723 ft | 425 kts | 258° |
| 2026-02-17 14:24 | 60.14929 | 22.66620 | 28564 ft | 426 kts | 258° |
| 2026-02-17 14:24 | 60.13560 | 22.55087 | 29428 ft | 425 kts | 258° |
| 2026-02-17 14:25 | 60.12648 | 22.47444 | 30011 ft | 424 kts | 258° |
| 2026-02-17 14:25 | 60.11265 | 22.35987 | 30780 ft | 422 kts | 257° |
| 2026-02-17 14:25 | 60.09877 | 22.24577 | 31583 ft | 419 kts | 257° |
| 2026-02-17 14:25 | 60.08499 | 22.13318 | 32401 ft | 415 kts | 257° |
| 2026-02-17 14:26 | 60.07122 | 22.02153 | 33238 ft | 410 kts | 257° |
| 2026-02-17 14:26 | 60.05760 | 21.91160 | 34088 ft | 404 kts | 257° |
| 2026-02-17 14:26 | 60.04413 | 21.80338 | 34752 ft | 400 kts | 257° |
| 2026-02-17 14:27 | 60.01674 | 21.58725 | 35545 ft | 402 kts | 256° |
| 2026-02-17 14:27 | 60.00283 | 21.47866 | 35960 ft | 402 kts | 256° |
| 2026-02-17 14:27 | 59.99018 | 21.36921 | 36067 ft | 408 kts | 263° |
| 2026-02-17 14:28 | 59.97857 | 21.13987 | 36063 ft | 427 kts | 264° |
| 2026-02-17 14:28 | 59.96585 | 20.90294 | 36061 ft | 429 kts | 264° |
| 2026-02-17 14:29 | 59.95304 | 20.66610 | 36057 ft | 429 kts | 264° |
| 2026-02-17 14:29 | 59.93979 | 20.42937 | 36042 ft | 429 kts | 263° |
| 2026-02-17 14:30 | 59.92597 | 20.19276 | 36040 ft | 430 kts | 263° |
| 2026-02-17 14:31 | 59.89701 | 19.71945 | 36045 ft | 431 kts | 262° |
| 2026-02-17 14:31 | 59.88190 | 19.48259 | 36044 ft | 431 kts | 262° |
| 2026-02-17 14:32 | 59.86640 | 19.24593 | 36041 ft | 431 kts | 262° |
| 2026-02-17 14:32 | 59.85043 | 19.00927 | 36035 ft | 431 kts | 261° |
| 2026-02-17 14:33 | 59.83399 | 18.77300 | 36026 ft | 431 kts | 261° |
| 2026-02-17 14:33 | 59.80877 | 18.42030 | 36009 ft | 431 kts | 261° |
| 2026-02-17 14:34 | 59.79115 | 18.18369 | 36000 ft | 431 kts | 260° |
| 2026-02-17 14:35 | 59.76423 | 17.83101 | 35995 ft | 430 kts | 260° |
| 2026-02-17 14:35 | 59.74568 | 17.59654 | 36013 ft | 430 kts | 260° |
| 2026-02-17 14:36 | 59.72685 | 17.36274 | 36004 ft | 430 kts | 259° |
| 2026-02-17 14:36 | 59.70776 | 17.13042 | 35996 ft | 430 kts | 259° |
| 2026-02-17 14:37 | 59.68813 | 16.89698 | 36012 ft | 430 kts | 259° |
| 2026-02-17 14:37 | 59.67684 | 16.76668 | 36015 ft | 430 kts | 259° |
| 2026-02-17 14:38 | 59.66678 | 16.65018 | 36020 ft | 430 kts | 259° |
| 2026-02-17 14:38 | 59.65657 | 16.53374 | 36017 ft | 430 kts | 258° |
| 2026-02-17 14:39 | 59.64103 | 16.35911 | 36009 ft | 430 kts | 258° |
| 2026-02-17 14:39 | 59.63054 | 16.24277 | 36007 ft | 430 kts | 258° |
| 2026-02-17 14:40 | 59.62186 | 16.12580 | 35997 ft | 431 kts | 262° |
| 2026-02-17 14:41 | 59.61093 | 15.89247 | 35987 ft | 431 kts | 263° |
| 2026-02-17 14:41 | 59.59772 | 15.65835 | 35984 ft | 432 kts | 262° |
| 2026-02-17 14:42 | 59.58380 | 15.42143 | 35987 ft | 432 kts | 262° |
| 2026-02-17 14:42 | 59.56978 | 15.18746 | 35988 ft | 432 kts | 262° |
| 2026-02-17 14:43 | 59.54750 | 14.83435 | 35986 ft | 433 kts | 261° |
| 2026-02-17 14:43 | 59.53227 | 14.59880 | 35985 ft | 433 kts | 261° |
| 2026-02-17 14:44 | 59.51649 | 14.36350 | 35982 ft | 434 kts | 261° |
| 2026-02-17 14:44 | 59.50039 | 14.12801 | 35980 ft | 434 kts | 261° |
| 2026-02-17 14:45 | 59.48390 | 13.89259 | 35968 ft | 434 kts | 261° |
| 2026-02-17 14:45 | 59.46695 | 13.66010 | 35949 ft | 434 kts | 261° |
| 2026-02-17 14:46 | 59.44947 | 13.42442 | 35939 ft | 434 kts | 261° |
| 2026-02-17 14:47 | 59.42773 | 13.07103 | 35949 ft | 435 kts | 263° |
| 2026-02-17 14:47 | 59.41435 | 12.83474 | 35957 ft | 435 kts | 262° |
| 2026-02-17 14:48 | 59.40009 | 12.59889 | 35973 ft | 435 kts | 262° |
| 2026-02-17 14:48 | 59.38567 | 12.36286 | 35960 ft | 435 kts | 262° |
| 2026-02-17 14:49 | 59.37066 | 12.12754 | 35952 ft | 435 kts | 262° |
| 2026-02-17 14:49 | 59.35534 | 11.89354 | 35965 ft | 435 kts | 262° |
| 2026-02-17 14:50 | 59.33953 | 11.65746 | 35951 ft | 435 kts | 262° |
| 2026-02-17 14:50 | 59.32320 | 11.42215 | 35952 ft | 435 kts | 262° |
| 2026-02-17 14:51 | 59.29836 | 11.07260 | 35943 ft | 435 kts | 261° |
| 2026-02-17 14:51 | 59.28097 | 10.83789 | 35935 ft | 435 kts | 261° |
| 2026-02-17 14:52 | 59.26337 | 10.60416 | 35939 ft | 434 kts | 261° |
| 2026-02-17 14:52 | 59.24527 | 10.37076 | 35935 ft | 434 kts | 261° |
| 2026-02-17 14:53 | 59.22676 | 10.13767 | 35939 ft | 434 kts | 261° |
| 2026-02-17 14:53 | 59.20785 | 9.90465 | 35947 ft | 434 kts | 261° |
| 2026-02-17 14:54 | 59.18866 | 9.67211 | 35954 ft | 434 kts | 261° |
| 2026-02-17 14:55 | 59.15886 | 9.32423 | 35959 ft | 434 kts | 261° |
| 2026-02-17 14:55 | 59.13866 | 9.09378 | 35958 ft | 433 kts | 261° |
| 2026-02-17 14:56 | 59.11802 | 8.86374 | 35961 ft | 433 kts | 261° |
| 2026-02-17 14:56 | 59.09686 | 8.63217 | 35960 ft | 433 kts | 261° |
| 2026-02-17 14:57 | 59.07535 | 8.40246 | 35966 ft | 432 kts | 260° |
| 2026-02-17 14:57 | 59.05336 | 8.17263 | 35958 ft | 432 kts | 260° |
| 2026-02-17 14:58 | 59.03115 | 7.94351 | 35961 ft | 431 kts | 260° |
| 2026-02-17 14:58 | 59.00863 | 7.71524 | 35963 ft | 431 kts | 260° |
| 2026-02-17 14:59 | 58.97337 | 7.37399 | 35972 ft | 431 kts | 259° |
| 2026-02-17 14:59 | 58.94824 | 7.14660 | 35975 ft | 430 kts | 259° |
| 2026-02-17 15:00 | 58.92317 | 6.92190 | 35977 ft | 430 kts | 259° |
| 2026-02-17 15:00 | 58.89762 | 6.69603 | 35971 ft | 430 kts | 259° |
| 2026-02-17 15:01 | 58.87144 | 6.47048 | 35969 ft | 429 kts | 259° |
| 2026-02-17 15:01 | 58.84511 | 6.24543 | 35953 ft | 429 kts | 259° |
| 2026-02-17 15:02 | 58.81838 | 6.02084 | 35944 ft | 429 kts | 259° |
| 2026-02-17 15:03 | 58.77740 | 5.68504 | 35929 ft | 429 kts | 259° |
| 2026-02-17 15:03 | 58.74971 | 5.46175 | 35937 ft | 428 kts | 259° |
| 2026-02-17 15:04 | 58.72169 | 5.23893 | 35941 ft | 428 kts | 259° |
| 2026-02-17 15:04 | 58.69337 | 5.01813 | 35943 ft | 428 kts | 259° |
| 2026-02-17 15:05 | 58.66463 | 4.79633 | 35949 ft | 427 kts | 259° |
| 2026-02-17 15:05 | 58.63558 | 4.57513 | 35956 ft | 427 kts | 259° |
| 2026-02-17 15:06 | 58.60592 | 4.35440 | 35953 ft | 427 kts | 259° |
| 2026-02-17 15:06 | 58.55594 | 3.98731 | 35944 ft | 426 kts | 259° |
| 2026-02-17 15:07 | 58.46352 | 3.33105 | 35953 ft | 425 kts | 259° |
| 2026-02-17 15:07 | 58.40066 | 2.89919 | 35962 ft | 424 kts | 258° |
| 2026-02-17 15:08 | 58.32350 | 2.47433 | 35953 ft | 424 kts | 255° |
| 2026-02-17 15:08 | 58.24286 | 2.05307 | 35955 ft | 424 kts | 255° |
| 2026-02-17 15:09 | 58.16077 | 1.63372 | 35978 ft | 424 kts | 255° |
| 2026-02-17 15:09 | 58.07745 | 1.21661 | 36007 ft | 423 kts | 254° |
| 2026-02-17 15:10 | 57.99310 | 0.80314 | 36025 ft | 421 kts | 254° |
| 2026-02-17 15:11 | 57.92410 | 0.47146 | 36027 ft | 420 kts | 254° |
| 2026-02-17 15:11 | 57.86233 | 0.17880 | 36037 ft | 419 kts | 254° |
| 2026-02-17 15:12 | 57.77541 | -0.22575 | 36043 ft | 417 kts | 253° |
| 2026-02-17 15:12 | 57.68758 | -0.62651 | 36056 ft | 415 kts | 253° |
| 2026-02-17 15:13 | 57.59966 | -1.02082 | 36064 ft | 413 kts | 253° |
| 2026-02-17 15:13 | 57.54200 | -1.20608 | 35888 ft | 438 kts | 226° |
| 2026-02-17 15:13 | 57.45186 | -1.35167 | 36136 ft | 427 kts | 231° |
| 2026-02-17 15:14 | 57.27221 | -1.64575 | 36090 ft | 432 kts | 230° |
| 2026-02-17 15:14 | 57.09214 | -1.93499 | 35957 ft | 430 kts | 230° |
| 2026-02-17 15:15 | 56.91252 | -2.21935 | 36095 ft | 422 kts | 230° |
| 2026-02-17 15:15 | 56.82289 | -2.36011 | 36171 ft | 421 kts | 230° |
| 2026-02-17 15:15 | 56.64392 | -2.63837 | 36072 ft | 423 kts | 230° |
| 2026-02-17 15:16 | 56.46648 | -2.91043 | 36096 ft | 418 kts | 229° |
| 2026-02-17 15:16 | 56.28796 | -3.18081 | 36112 ft | 417 kts | 229° |
| 2026-02-17 15:17 | 56.11139 | -3.44508 | 36085 ft | 416 kts | 228° |
| 2026-02-17 15:17 | 55.93305 | -3.70840 | 36084 ft | 415 kts | 228° |
| 2026-02-17 15:18 | 55.88024 | -3.79081 | 35504 ft | 401 kts | 239° |
| 2026-02-17 15:18 | 55.85590 | -3.84240 | 35248 ft | 399 kts | 231° |
| 2026-02-17 15:18 | 55.81118 | -3.90025 | 35211 ft | 413 kts | 222° |
| 2026-02-17 15:19 | 55.71663 | -4.02050 | 35931 ft | 411 kts | 229° |
| 2026-02-17 15:19 | 55.67286 | -4.08532 | 36068 ft | 410 kts | 229° |
| 2026-02-17 15:19 | 55.62894 | -4.15019 | 36075 ft | 410 kts | 229° |
| 2026-02-17 15:20 | 55.54044 | -4.27703 | 36079 ft | 408 kts | 228° |
| 2026-02-17 15:20 | 55.45242 | -4.40254 | 36079 ft | 406 kts | 228° |
| 2026-02-17 15:21 | 55.36455 | -4.52692 | 36078 ft | 404 kts | 229° |
| 2026-02-17 15:21 | 55.27751 | -4.64959 | 36093 ft | 404 kts | 229° |
| 2026-02-17 15:22 | 55.18985 | -4.77239 | 36093 ft | 403 kts | 229° |
| 2026-02-17 15:22 | 55.05391 | -4.96107 | 36094 ft | 399 kts | 229° |
| 2026-02-17 15:23 | 54.89997 | -5.17323 | 36090 ft | 393 kts | 229° |
| 2026-02-17 15:23 | 54.81448 | -5.29002 | 36073 ft | 390 kts | 229° |
| 2026-02-17 15:24 | 54.77211 | -5.34773 | 35542 ft | 383 kts | 229° |
| 2026-02-17 15:24 | 54.73051 | -5.40406 | 35040 ft | 378 kts | 229° |
| 2026-02-17 15:24 | 54.68917 | -5.45979 | 34543 ft | 374 kts | 229° |
| 2026-02-17 15:24 | 54.64844 | -5.51475 | 34049 ft | 370 kts | 230° |
| 2026-02-17 15:25 | 54.60779 | -5.56982 | 32943 ft | 373 kts | 229° |
| 2026-02-17 15:25 | 54.56691 | -5.62492 | 31606 ft | 375 kts | 228° |
| 2026-02-17 15:25 | 54.52537 | -5.68041 | 30144 ft | 383 kts | 227° |
| 2026-02-17 15:25 | 54.48239 | -5.73781 | 28444 ft | 397 kts | 226° |
| 2026-02-17 15:26 | 54.43823 | -5.79658 | 26693 ft | 406 kts | 225° |
| 2026-02-17 15:26 | 54.39294 | -5.85670 | 24779 ft | 416 kts | 224° |
| 2026-02-17 15:26 | 54.34677 | -5.91784 | 23021 ft | 421 kts | 223° |
| 2026-02-17 15:27 | 54.25557 | -6.03777 | 20170 ft | 407 kts | 222° |
| 2026-02-17 15:27 | 54.21098 | -6.09642 | 18769 ft | 402 kts | 221° |
| 2026-02-17 15:27 | 54.16671 | -6.15438 | 17304 ft | 398 kts | 220° |
| 2026-02-17 15:27 | 54.12306 | -6.21130 | 15930 ft | 393 kts | 219° |
| 2026-02-17 15:28 | 54.07978 | -6.26757 | 14607 ft | 391 kts | 218° |
| 2026-02-17 15:28 | 54.03667 | -6.32358 | 13287 ft | 387 kts | 218° |
| 2026-02-17 15:28 | 53.99446 | -6.37825 | 12114 ft | 377 kts | 217° |
| 2026-02-17 15:28 | 53.95344 | -6.43131 | 11236 ft | 358 kts | 216° |
| 2026-02-17 15:29 | 53.91739 | -6.47784 | 10866 ft | 301 kts | 216° |
| 2026-02-17 15:29 | 53.88597 | -6.51837 | 10239 ft | 272 kts | 215° |
| 2026-02-17 15:29 | 53.85494 | -6.55816 | 9834 ft | 279 kts | 214° |
| 2026-02-17 15:29 | 53.82397 | -6.59780 | 9561 ft | 279 kts | 214° |
| 2026-02-17 15:30 | 53.79311 | -6.63726 | 9272 ft | 278 kts | 214° |
| 2026-02-17 15:30 | 53.76228 | -6.67650 | 8996 ft | 276 kts | 214° |
| 2026-02-17 15:30 | 53.73100 | -6.71621 | 8102 ft | 287 kts | 214° |
| 2026-02-17 15:31 | 53.68484 | -6.79277 | 8008 ft | 242 kts | 236° |
| 2026-02-17 15:31 | 53.67598 | -6.81706 | 8009 ft | 244 kts | 235° |
| 2026-02-17 15:31 | 53.66697 | -6.84132 | 7999 ft | 244 kts | 234° |
| 2026-02-17 15:31 | 53.65793 | -6.86563 | 7995 ft | 244 kts | 234° |
| 2026-02-17 15:32 | 53.64834 | -6.88913 | 7989 ft | 242 kts | 225° |
| 2026-02-17 15:32 | 53.63573 | -6.90747 | 7994 ft | 239 kts | 209° |
| 2026-02-17 15:32 | 53.62108 | -6.92035 | 7994 ft | 237 kts | 204° |
| 2026-02-17 15:32 | 53.60337 | -6.93529 | 7988 ft | 237 kts | 202° |
| 2026-02-17 15:33 | 53.57226 | -6.93436 | 7992 ft | 230 kts | 151° |
| 2026-02-17 15:33 | 53.55377 | -6.89195 | 7466 ft | 234 kts | 101° |
| 2026-02-17 15:33 | 53.55124 | -6.83800 | 6972 ft | 230 kts | 97° |
| 2026-02-17 15:33 | 53.54834 | -6.78533 | 6489 ft | 228 kts | 98° |
| 2026-02-17 15:34 | 53.54540 | -6.73252 | 5973 ft | 226 kts | 97° |
| 2026-02-17 15:34 | 53.53595 | -6.68445 | 5485 ft | 218 kts | 138° |
| 2026-02-17 15:34 | 53.50715 | -6.67360 | 5018 ft | 223 kts | 184° |
| 2026-02-17 15:35 | 53.47620 | -6.66415 | 4831 ft | 201 kts | 148° |
| 2026-02-17 15:35 | 53.46551 | -6.64948 | 4727 ft | 198 kts | 132° |
| 2026-02-17 15:35 | 53.45821 | -6.63080 | 4520 ft | 183 kts | 116° |
| 2026-02-17 15:35 | 53.45473 | -6.61078 | 4290 ft | 178 kts | 101° |
| 2026-02-17 15:36 | 53.45360 | -6.59034 | 4054 ft | 176 kts | 97° |
| 2026-02-17 15:36 | 53.45255 | -6.57001 | 3818 ft | 174 kts | 98° |
| 2026-02-17 15:36 | 53.45150 | -6.54989 | 3571 ft | 172 kts | 98° |
| 2026-02-17 15:36 | 53.45047 | -6.53006 | 3331 ft | 170 kts | 98° |
| 2026-02-17 15:37 | 53.44943 | -6.51026 | 3093 ft | 169 kts | 97° |
| 2026-02-17 15:37 | 53.44840 | -6.49066 | 2852 ft | 168 kts | 97° |
| 2026-02-17 15:37 | 53.44737 | -6.47122 | 2620 ft | 168 kts | 97° |
| 2026-02-17 15:37 | 53.44634 | -6.45171 | 2380 ft | 167 kts | 97° |
| 2026-02-17 15:38 | 53.44533 | -6.43264 | 2149 ft | 166 kts | 97° |
| 2026-02-17 15:38 | 53.44429 | -6.41312 | 1906 ft | 165 kts | 97° |
| 2026-02-17 15:38 | 53.44328 | -6.39426 | 1685 ft | 165 kts | 97° |
| 2026-02-17 15:39 | 53.44128 | -6.35699 | 1221 ft | 153 kts | 96° |
| 2026-02-17 15:39 | 53.44035 | -6.33958 | 985 ft | 149 kts | 97° |
| 2026-02-17 15:39 | 53.43942 | -6.32243 | 777 ft | 147 kts | 96° |
| 2026-02-17 15:39 | 53.43850 | -6.30542 | 581 ft | 146 kts | 94° |
| 2026-02-17 15:40 | 53.43757 | -6.28867 | 347 ft | 139 kts | 94° |
| 2026-02-17 15:40 | 53.43679 | -6.27384 | 221 ft | 114 kts | 95° |
| 2026-02-17 15:40 | 53.43629 | -6.26510 | 227 ft | 62 kts | 97° |
| 2026-02-17 15:40 | 53.43601 | -6.25958 | 225 ft | 27 kts | 93° |
| 2026-02-17 15:41 | 53.43514 | -6.25763 | 221 ft | 21 kts | 152° |
| 2026-02-17 15:41 | 53.43379 | -6.25663 | 222 ft | 22 kts | 162° |
| 2026-02-17 15:41 | 53.43262 | -6.25564 | 223 ft | 11 kts | 146° |
| 2026-02-17 15:41 | 53.43213 | -6.25468 | 221 ft | 12 kts | 109° |
| 2026-02-17 15:42 | 53.43216 | -6.25328 | 223 ft | 12 kts | 82° |
| 2026-02-17 15:42 | 53.43225 | -6.25187 | 221 ft | 12 kts | 91° |
| 2026-02-17 15:42 | 53.43184 | -6.25086 | 223 ft | 9 kts | 160° |
| 2026-02-17 15:43 | 53.43113 | -6.25090 | 221 ft | 0 kts | 185° |